sensor_id;sensor_type;location;lat;lon;timestamp;temperature;humidity
11840;DHT22;5979;50.800;4.904;2023-07-16T00:01:54;18.50;99.90
11840;DHT22;5979;50.800;4.904;2023-07-16T00:04:20;18.50;99.90
11840;DHT22;5979;50.800;4.904;2023-07-16T00:06:46;18.50;99.90
11840;DHT22;5979;50.800;4.904;2023-07-16T00:09:12;18.50;99.90
11840;DHT22;5979;50.800;4.904;2023-07-16T00:11:37;18.40;99.90
11840;DHT22;5979;50.800;4.904;2023-07-16T00:14:03;18.40;99.90
11840;DHT22;5979;50.800;4.904;2023-07-16T00:16:29;18.40;99.90
11840;DHT22;5979;50.800;4.904;2023-07-16T00:18:54;18.40;99.90
11840;DHT22;5979;50.800;4.904;2023-07-16T00:21:20;18.30;99.90
11840;DHT22;5979;50.800;4.904;2023-07-16T00:23:46;18.30;99.90
11840;DHT22;5979;50.800;4.904;2023-07-16T00:26:13;18.30;99.90
11840;DHT22;5979;50.800;4.904;2023-07-16T00:28:39;18.20;99.90
11840;DHT22;5979;50.800;4.904;2023-07-16T00:31:04;18.20;99.90
11840;DHT22;5979;50.800;4.904;2023-07-16T00:33:30;18.20;99.90
11840;DHT22;5979;50.800;4.904;2023-07-16T00:35:56;18.20;99.90
11840;DHT22;5979;50.800;4.904;2023-07-16T00:38:21;18.10;99.90
11840;DHT22;5979;50.800;4.904;2023-07-16T00:40:48;18.10;99.90
11840;DHT22;5979;50.800;4.904;2023-07-16T00:43:13;18.10;99.90
11840;DHT22;5979;50.800;4.904;2023-07-16T00:45:40;18.10;99.90
11840;DHT22;5979;50.800;4.904;2023-07-16T00:48:07;18.00;99.90
11840;DHT22;5979;50.800;4.904;2023-07-16T00:50:34;18.10;99.90
11840;DHT22;5979;50.800;4.904;2023-07-16T00:53:08;18.00;99.90
11840;DHT22;5979;50.800;4.904;2023-07-16T00:55:34;18.00;99.90
11840;DHT22;5979;50.800;4.904;2023-07-16T00:58:03;18.00;99.90
11840;DHT22;5979;50.800;4.904;2023-07-16T01:00:32;18.00;99.90
11840;DHT22;5979;50.800;4.904;2023-07-16T01:02:58;17.80;99.90
11840;DHT22;5979;50.800;4.904;2023-07-16T01:05:24;17.80;99.90
11840;DHT22;5979;50.800;4.904;2023-07-16T01:07:59;17.80;99.90
11840;DHT22;5979;50.800;4.904;2023-07-16T01:10:25;17.70;99.90
11840;DHT22;5979;50.800;4.904;2023-07-16T01:12:54;17.70;99.90
11840;DHT22;5979;50.800;4.904;2023-07-16T01:15:21;17.70;99.90
11840;DHT22;5979;50.800;4.904;2023-07-16T01:17:47;17.60;99.90
11840;DHT22;5979;50.800;4.904;2023-07-16T01:20:12;17.60;99.90
11840;DHT22;5979;50.800;4.904;2023-07-16T01:28:05;17.50;99.90
11840;DHT22;5979;50.800;4.904;2023-07-16T01:30:38;17.50;99.90
11840;DHT22;5979;50.800;4.904;2023-07-16T01:33:05;17.50;99.90
11840;DHT22;5979;50.800;4.904;2023-07-16T01:35:33;17.40;99.90
11840;DHT22;5979;50.800;4.904;2023-07-16T01:38:00;17.30;99.90
11840;DHT22;5979;50.800;4.904;2023-07-16T01:40:26;17.30;99.90
11840;DHT22;5979;50.800;4.904;2023-07-16T01:42:52;17.30;99.90
11840;DHT22;5979;50.800;4.904;2023-07-16T01:45:17;17.30;99.90
11840;DHT22;5979;50.800;4.904;2023-07-16T01:50:39;17.30;99.90
11840;DHT22;5979;50.800;4.904;2023-07-16T01:53:04;17.20;99.90
11840;DHT22;5979;50.800;4.904;2023-07-16T01:55:30;17.20;99.90
11840;DHT22;5979;50.800;4.904;2023-07-16T01:57:56;17.20;99.90
11840;DHT22;5979;50.800;4.904;2023-07-16T02:00:21;17.20;99.90
11840;DHT22;5979;50.800;4.904;2023-07-16T02:02:47;17.10;99.90
11840;DHT22;5979;50.800;4.904;2023-07-16T02:05:14;17.10;99.90
11840;DHT22;5979;50.800;4.904;2023-07-16T02:07:40;17.10;99.90
11840;DHT22;5979;50.800;4.904;2023-07-16T02:10:06;17.00;99.90
11840;DHT22;5979;50.800;4.904;2023-07-16T02:12:31;17.00;99.90
11840;DHT22;5979;50.800;4.904;2023-07-16T02:14:57;16.90;99.90
11840;DHT22;5979;50.800;4.904;2023-07-16T02:17:23;16.80;99.90
11840;DHT22;5979;50.800;4.904;2023-07-16T02:19:49;16.70;99.90
11840;DHT22;5979;50.800;4.904;2023-07-16T02:22:14;16.60;99.90
11840;DHT22;5979;50.800;4.904;2023-07-16T02:24:40;16.60;99.90
11840;DHT22;5979;50.800;4.904;2023-07-16T02:27:06;16.50;99.90
11840;DHT22;5979;50.800;4.904;2023-07-16T02:29:32;16.40;99.90
11840;DHT22;5979;50.800;4.904;2023-07-16T02:31:58;16.40;99.90
11840;DHT22;5979;50.800;4.904;2023-07-16T02:34:23;16.40;99.90
11840;DHT22;5979;50.800;4.904;2023-07-16T02:36:49;16.40;99.90
11840;DHT22;5979;50.800;4.904;2023-07-16T02:39:15;16.40;99.90
11840;DHT22;5979;50.800;4.904;2023-07-16T02:41:40;16.40;99.90
11840;DHT22;5979;50.800;4.904;2023-07-16T02:44:32;16.40;99.90
11840;DHT22;5979;50.800;4.904;2023-07-16T02:46:58;16.30;99.90
11840;DHT22;5979;50.800;4.904;2023-07-16T02:49:23;16.30;99.90
11840;DHT22;5979;50.800;4.904;2023-07-16T02:51:49;16.30;99.90
11840;DHT22;5979;50.800;4.904;2023-07-16T02:54:15;16.20;99.90
11840;DHT22;5979;50.800;4.904;2023-07-16T02:56:40;16.20;99.90
11840;DHT22;5979;50.800;4.904;2023-07-16T02:59:06;16.10;99.90
11840;DHT22;5979;50.800;4.904;2023-07-16T03:01:32;16.10;99.90
11840;DHT22;5979;50.800;4.904;2023-07-16T03:03:57;16.10;99.90
11840;DHT22;5979;50.800;4.904;2023-07-16T03:06:23;16.00;99.90
11840;DHT22;5979;50.800;4.904;2023-07-16T03:08:49;16.00;99.90
11840;DHT22;5979;50.800;4.904;2023-07-16T03:11:15;16.00;99.90
11840;DHT22;5979;50.800;4.904;2023-07-16T03:13:41;15.90;99.90
11840;DHT22;5979;50.800;4.904;2023-07-16T03:16:06;16.00;99.90
11840;DHT22;5979;50.800;4.904;2023-07-16T03:18:32;16.00;99.90
11840;DHT22;5979;50.800;4.904;2023-07-16T03:20:58;15.90;99.90
11840;DHT22;5979;50.800;4.904;2023-07-16T03:23:24;15.90;99.90
11840;DHT22;5979;50.800;4.904;2023-07-16T03:25:50;15.90;99.90
11840;DHT22;5979;50.800;4.904;2023-07-16T03:28:16;15.90;99.90
11840;DHT22;5979;50.800;4.904;2023-07-16T03:30:46;15.90;99.90
11840;DHT22;5979;50.800;4.904;2023-07-16T03:33:12;15.90;99.90
11840;DHT22;5979;50.800;4.904;2023-07-16T03:35:37;15.90;99.90
11840;DHT22;5979;50.800;4.904;2023-07-16T03:38:03;15.90;99.90
11840;DHT22;5979;50.800;4.904;2023-07-16T03:40:29;16.00;99.90
11840;DHT22;5979;50.800;4.904;2023-07-16T03:42:55;15.90;99.90
11840;DHT22;5979;50.800;4.904;2023-07-16T03:45:21;16.00;99.90
11840;DHT22;5979;50.800;4.904;2023-07-16T03:47:46;15.90;99.90
11840;DHT22;5979;50.800;4.904;2023-07-16T03:50:12;15.90;99.90
11840;DHT22;5979;50.800;4.904;2023-07-16T03:52:41;15.80;99.90
11840;DHT22;5979;50.800;4.904;2023-07-16T03:55:07;15.80;99.90
11840;DHT22;5979;50.800;4.904;2023-07-16T03:57:33;15.80;99.90
11840;DHT22;5979;50.800;4.904;2023-07-16T03:59:59;15.80;99.90
11840;DHT22;5979;50.800;4.904;2023-07-16T04:02:25;15.80;99.90
11840;DHT22;5979;50.800;4.904;2023-07-16T04:04:51;15.80;99.90
11840;DHT22;5979;50.800;4.904;2023-07-16T04:07:17;15.90;99.90
11840;DHT22;5979;50.800;4.904;2023-07-16T04:09:43;15.90;99.90
11840;DHT22;5979;50.800;4.904;2023-07-16T04:12:09;15.90;99.90
11840;DHT22;5979;50.800;4.904;2023-07-16T04:14:34;15.90;99.90
11840;DHT22;5979;50.800;4.904;2023-07-16T04:17:00;15.90;99.90
11840;DHT22;5979;50.800;4.904;2023-07-16T04:19:26;16.00;99.90
11840;DHT22;5979;50.800;4.904;2023-07-16T04:21:51;16.00;99.90
11840;DHT22;5979;50.800;4.904;2023-07-16T04:24:17;16.10;99.90
11840;DHT22;5979;50.800;4.904;2023-07-16T04:26:42;16.10;99.90
11840;DHT22;5979;50.800;4.904;2023-07-16T04:29:08;16.10;99.90
11840;DHT22;5979;50.800;4.904;2023-07-16T04:31:34;16.20;99.90
11840;DHT22;5979;50.800;4.904;2023-07-16T04:34:00;16.20;99.90
11840;DHT22;5979;50.800;4.904;2023-07-16T04:36:25;16.30;99.90
11840;DHT22;5979;50.800;4.904;2023-07-16T04:38:51;16.50;99.90
11840;DHT22;5979;50.800;4.904;2023-07-16T04:41:17;16.80;99.90
11840;DHT22;5979;50.800;4.904;2023-07-16T04:43:43;17.20;99.90
11840;DHT22;5979;50.800;4.904;2023-07-16T04:46:08;17.80;99.90
11840;DHT22;5979;50.800;4.904;2023-07-16T04:48:34;18.20;99.90
11840;DHT22;5979;50.800;4.904;2023-07-16T04:51:00;18.60;99.90
11840;DHT22;5979;50.800;4.904;2023-07-16T04:53:25;18.90;99.90
11840;DHT22;5979;50.800;4.904;2023-07-16T04:55:51;19.30;99.90
11840;DHT22;5979;50.800;4.904;2023-07-16T04:58:17;19.40;99.90
11840;DHT22;5979;50.800;4.904;2023-07-16T05:00:42;19.50;99.90
11840;DHT22;5979;50.800;4.904;2023-07-16T05:03:08;19.70;99.90
11840;DHT22;5979;50.800;4.904;2023-07-16T05:05:34;19.90;99.90
11840;DHT22;5979;50.800;4.904;2023-07-16T05:08:01;20.30;99.90
11840;DHT22;5979;50.800;4.904;2023-07-16T05:10:45;20.50;99.90
11840;DHT22;5979;50.800;4.904;2023-07-16T05:13:11;20.80;99.90
11840;DHT22;5979;50.800;4.904;2023-07-16T05:15:37;20.90;99.90
11840;DHT22;5979;50.800;4.904;2023-07-16T05:18:03;21.00;99.90
11840;DHT22;5979;50.800;4.904;2023-07-16T05:20:29;21.00;99.90
11840;DHT22;5979;50.800;4.904;2023-07-16T05:22:55;21.30;99.90
11840;DHT22;5979;50.800;4.904;2023-07-16T05:25:20;21.60;99.90
11840;DHT22;5979;50.800;4.904;2023-07-16T05:27:46;21.80;99.90
11840;DHT22;5979;50.800;4.904;2023-07-16T05:30:12;21.70;99.90
11840;DHT22;5979;50.800;4.904;2023-07-16T05:32:37;21.80;99.90
11840;DHT22;5979;50.800;4.904;2023-07-16T05:35:03;21.80;99.90
11840;DHT22;5979;50.800;4.904;2023-07-16T05:37:29;21.80;99.90
11840;DHT22;5979;50.800;4.904;2023-07-16T05:39:55;21.90;99.90
11840;DHT22;5979;50.800;4.904;2023-07-16T05:42:21;21.90;99.90
11840;DHT22;5979;50.800;4.904;2023-07-16T05:44:50;22.00;99.90
11840;DHT22;5979;50.800;4.904;2023-07-16T05:47:16;22.20;99.90
11840;DHT22;5979;50.800;4.904;2023-07-16T05:49:41;22.40;99.90
11840;DHT22;5979;50.800;4.904;2023-07-16T05:52:07;22.30;99.90
11840;DHT22;5979;50.800;4.904;2023-07-16T05:54:34;22.50;99.90
11840;DHT22;5979;50.800;4.904;2023-07-16T05:56:59;22.70;99.90
11840;DHT22;5979;50.800;4.904;2023-07-16T05:59:26;23.00;99.90
11840;DHT22;5979;50.800;4.904;2023-07-16T06:01:51;23.00;99.90
11840;DHT22;5979;50.800;4.904;2023-07-16T06:04:17;22.80;99.90
11840;DHT22;5979;50.800;4.904;2023-07-16T06:06:43;22.80;99.90
11840;DHT22;5979;50.800;4.904;2023-07-16T06:09:09;22.80;99.90
11840;DHT22;5979;50.800;4.904;2023-07-16T06:11:35;23.00;99.90
11840;DHT22;5979;50.800;4.904;2023-07-16T06:14:00;22.80;99.90
11840;DHT22;5979;50.800;4.904;2023-07-16T06:16:26;23.00;99.90
11840;DHT22;5979;50.800;4.904;2023-07-16T06:18:52;23.00;99.90
11840;DHT22;5979;50.800;4.904;2023-07-16T06:21:17;22.90;99.90
11840;DHT22;5979;50.800;4.904;2023-07-16T06:23:43;22.90;99.90
11840;DHT22;5979;50.800;4.904;2023-07-16T06:26:09;22.90;99.90
11840;DHT22;5979;50.800;4.904;2023-07-16T06:28:34;22.90;99.90
11840;DHT22;5979;50.800;4.904;2023-07-16T06:31:00;22.90;99.90
11840;DHT22;5979;50.800;4.904;2023-07-16T06:33:26;22.80;99.90
11840;DHT22;5979;50.800;4.904;2023-07-16T06:35:52;22.70;99.90
11840;DHT22;5979;50.800;4.904;2023-07-16T06:38:18;22.60;99.90
11840;DHT22;5979;50.800;4.904;2023-07-16T06:40:51;22.70;99.90
11840;DHT22;5979;50.800;4.904;2023-07-16T06:43:17;22.90;99.90
11840;DHT22;5979;50.800;4.904;2023-07-16T06:45:43;22.80;99.90
11840;DHT22;5979;50.800;4.904;2023-07-16T06:48:09;23.00;99.90
11840;DHT22;5979;50.800;4.904;2023-07-16T06:50:35;23.10;99.90
11840;DHT22;5979;50.800;4.904;2023-07-16T06:53:00;23.30;99.90
11840;DHT22;5979;50.800;4.904;2023-07-16T06:55:26;23.30;99.90
11840;DHT22;5979;50.800;4.904;2023-07-16T06:57:52;23.00;99.90
11840;DHT22;5979;50.800;4.904;2023-07-16T07:00:18;23.10;99.90
11840;DHT22;5979;50.800;4.904;2023-07-16T07:02:44;23.00;99.90
11840;DHT22;5979;50.800;4.904;2023-07-16T07:05:09;23.10;99.90
11840;DHT22;5979;50.800;4.904;2023-07-16T07:07:35;23.30;99.90
11840;DHT22;5979;50.800;4.904;2023-07-16T07:10:01;23.20;99.90
11840;DHT22;5979;50.800;4.904;2023-07-16T07:12:27;23.30;99.90
11840;DHT22;5979;50.800;4.904;2023-07-16T07:14:53;23.30;99.90
11840;DHT22;5979;50.800;4.904;2023-07-16T07:17:18;23.30;99.90
11840;DHT22;5979;50.800;4.904;2023-07-16T07:19:44;23.30;99.90
11840;DHT22;5979;50.800;4.904;2023-07-16T07:22:10;23.30;99.90
11840;DHT22;5979;50.800;4.904;2023-07-16T07:24:36;23.30;99.90
11840;DHT22;5979;50.800;4.904;2023-07-16T07:27:04;23.20;99.90
11840;DHT22;5979;50.800;4.904;2023-07-16T07:29:30;23.20;99.90
11840;DHT22;5979;50.800;4.904;2023-07-16T07:31:56;23.10;99.90
11840;DHT22;5979;50.800;4.904;2023-07-16T07:34:21;23.00;99.90
11840;DHT22;5979;50.800;4.904;2023-07-16T07:36:47;23.00;99.90
11840;DHT22;5979;50.800;4.904;2023-07-16T07:39:14;23.00;99.90
11840;DHT22;5979;50.800;4.904;2023-07-16T07:41:39;22.90;99.90
11840;DHT22;5979;50.800;4.904;2023-07-16T07:44:05;22.80;99.90
11840;DHT22;5979;50.800;4.904;2023-07-16T07:46:30;22.80;99.90
11840;DHT22;5979;50.800;4.904;2023-07-16T07:48:56;22.70;99.90
11840;DHT22;5979;50.800;4.904;2023-07-16T07:51:22;22.80;99.90
11840;DHT22;5979;50.800;4.904;2023-07-16T07:53:48;22.80;99.90
11840;DHT22;5979;50.800;4.904;2023-07-16T07:56:14;22.80;99.90
11840;DHT22;5979;50.800;4.904;2023-07-16T07:58:40;22.60;99.90
11840;DHT22;5979;50.800;4.904;2023-07-16T08:01:07;22.70;99.90
11840;DHT22;5979;50.800;4.904;2023-07-16T08:03:34;22.80;99.90
11840;DHT22;5979;50.800;4.904;2023-07-16T08:05:59;23.00;99.90
11840;DHT22;5979;50.800;4.904;2023-07-16T08:08:25;23.10;99.90
11840;DHT22;5979;50.800;4.904;2023-07-16T08:10:51;23.10;99.90
11840;DHT22;5979;50.800;4.904;2023-07-16T08:13:17;23.20;99.90
11840;DHT22;5979;50.800;4.904;2023-07-16T08:15:42;23.20;99.90
11840;DHT22;5979;50.800;4.904;2023-07-16T08:18:08;23.20;99.90
11840;DHT22;5979;50.800;4.904;2023-07-16T08:20:36;23.30;99.90
11840;DHT22;5979;50.800;4.904;2023-07-16T08:23:02;23.20;99.90
11840;DHT22;5979;50.800;4.904;2023-07-16T08:25:28;23.30;99.90
11840;DHT22;5979;50.800;4.904;2023-07-16T08:27:54;23.40;99.90
11840;DHT22;5979;50.800;4.904;2023-07-16T08:30:20;23.60;99.90
11840;DHT22;5979;50.800;4.904;2023-07-16T08:32:46;23.80;99.90
11840;DHT22;5979;50.800;4.904;2023-07-16T08:35:12;24.00;99.90
11840;DHT22;5979;50.800;4.904;2023-07-16T08:37:42;24.20;99.90
11840;DHT22;5979;50.800;4.904;2023-07-16T08:40:08;24.20;99.90
11840;DHT22;5979;50.800;4.904;2023-07-16T08:42:37;24.40;99.90
11840;DHT22;5979;50.800;4.904;2023-07-16T08:45:06;24.50;99.90
11840;DHT22;5979;50.800;4.904;2023-07-16T08:47:33;24.60;99.90
11840;DHT22;5979;50.800;4.904;2023-07-16T08:50:00;24.70;99.90
11840;DHT22;5979;50.800;4.904;2023-07-16T08:52:27;24.80;99.90
11840;DHT22;5979;50.800;4.904;2023-07-16T08:54:54;25.00;99.90
11840;DHT22;5979;50.800;4.904;2023-07-16T08:57:20;25.00;99.90
11840;DHT22;5979;50.800;4.904;2023-07-16T08:59:50;24.70;99.90
11840;DHT22;5979;50.800;4.904;2023-07-16T09:02:20;24.60;99.90
11840;DHT22;5979;50.800;4.904;2023-07-16T09:04:49;24.50;99.90
11840;DHT22;5979;50.800;4.904;2023-07-16T09:07:18;24.60;99.90
11840;DHT22;5979;50.800;4.904;2023-07-16T09:09:55;24.70;99.90
11840;DHT22;5979;50.800;4.904;2023-07-16T09:12:24;24.90;99.90
11840;DHT22;5979;50.800;4.904;2023-07-16T09:14:50;24.80;99.90
11840;DHT22;5979;50.800;4.904;2023-07-16T09:17:21;24.70;99.90
11840;DHT22;5979;50.800;4.904;2023-07-16T09:19:48;24.70;99.90
11840;DHT22;5979;50.800;4.904;2023-07-16T09:22:17;24.70;99.90
11840;DHT22;5979;50.800;4.904;2023-07-16T09:24:45;24.60;99.90
11840;DHT22;5979;50.800;4.904;2023-07-16T09:27:11;24.60;99.90
11840;DHT22;5979;50.800;4.904;2023-07-16T09:29:38;24.60;99.90
11840;DHT22;5979;50.800;4.904;2023-07-16T09:32:04;24.70;99.90
11840;DHT22;5979;50.800;4.904;2023-07-16T09:34:33;24.80;99.90
11840;DHT22;5979;50.800;4.904;2023-07-16T09:37:00;24.70;99.90
11840;DHT22;5979;50.800;4.904;2023-07-16T09:39:27;24.50;99.90
11840;DHT22;5979;50.800;4.904;2023-07-16T09:42:11;24.30;99.90
11840;DHT22;5979;50.800;4.904;2023-07-16T09:44:38;24.50;99.90
11840;DHT22;5979;50.800;4.904;2023-07-16T09:47:05;24.40;99.90
11840;DHT22;5979;50.800;4.904;2023-07-16T09:49:31;24.10;99.90
11840;DHT22;5979;50.800;4.904;2023-07-16T09:51:57;24.20;99.90
11840;DHT22;5979;50.800;4.904;2023-07-16T09:54:25;24.10;99.90
11840;DHT22;5979;50.800;4.904;2023-07-16T09:56:55;24.20;99.90
11840;DHT22;5979;50.800;4.904;2023-07-16T09:59:26;24.40;99.90
11840;DHT22;5979;50.800;4.904;2023-07-16T10:01:54;24.50;99.90
11840;DHT22;5979;50.800;4.904;2023-07-16T10:04:20;24.60;99.90
11840;DHT22;5979;50.800;4.904;2023-07-16T10:06:57;24.70;99.90
11840;DHT22;5979;50.800;4.904;2023-07-16T10:09:39;24.70;99.90
11840;DHT22;5979;50.800;4.904;2023-07-16T10:12:16;24.50;99.90
11840;DHT22;5979;50.800;4.904;2023-07-16T10:14:48;24.50;99.90
11840;DHT22;5979;50.800;4.904;2023-07-16T10:17:15;24.50;99.90
11840;DHT22;5979;50.800;4.904;2023-07-16T10:20:02;24.60;99.90
11840;DHT22;5979;50.800;4.904;2023-07-16T10:22:39;24.60;99.90
11840;DHT22;5979;50.800;4.904;2023-07-16T10:25:27;24.30;99.90
11840;DHT22;5979;50.800;4.904;2023-07-16T10:27:54;24.30;99.90
11840;DHT22;5979;50.800;4.904;2023-07-16T10:30:20;24.30;99.90
11840;DHT22;5979;50.800;4.904;2023-07-16T10:32:46;24.40;99.90
11840;DHT22;5979;50.800;4.904;2023-07-16T10:35:12;24.50;99.90
11840;DHT22;5979;50.800;4.904;2023-07-16T10:37:39;24.50;99.90
11840;DHT22;5979;50.800;4.904;2023-07-16T10:40:06;24.50;99.90
11840;DHT22;5979;50.800;4.904;2023-07-16T10:42:35;24.30;99.90
11840;DHT22;5979;50.800;4.904;2023-07-16T10:45:02;24.40;99.90
11840;DHT22;5979;50.800;4.904;2023-07-16T10:47:37;24.40;99.90
11840;DHT22;5979;50.800;4.904;2023-07-16T10:50:09;24.40;99.90
11840;DHT22;5979;50.800;4.904;2023-07-16T10:52:54;24.50;99.90
11840;DHT22;5979;50.800;4.904;2023-07-16T10:55:20;24.70;99.90
11840;DHT22;5979;50.800;4.904;2023-07-16T10:57:50;24.50;99.90
11840;DHT22;5979;50.800;4.904;2023-07-16T11:00:17;24.60;99.90
11840;DHT22;5979;50.800;4.904;2023-07-16T11:02:43;24.90;99.90
11840;DHT22;5979;50.800;4.904;2023-07-16T11:05:14;25.20;99.90
11840;DHT22;5979;50.800;4.904;2023-07-16T11:07:49;25.40;99.90
11840;DHT22;5979;50.800;4.904;2023-07-16T11:10:16;25.50;99.90
11840;DHT22;5979;50.800;4.904;2023-07-16T11:12:42;25.40;99.90
11840;DHT22;5979;50.800;4.904;2023-07-16T11:15:08;25.30;99.90
11840;DHT22;5979;50.800;4.904;2023-07-16T11:17:36;25.20;99.90
11840;DHT22;5979;50.800;4.904;2023-07-16T11:20:02;24.90;99.90
11840;DHT22;5979;50.800;4.904;2023-07-16T11:22:29;24.80;99.90
11840;DHT22;5979;50.800;4.904;2023-07-16T11:24:55;24.60;99.90
11840;DHT22;5979;50.800;4.904;2023-07-16T11:29:58;24.50;99.90
11840;DHT22;5979;50.800;4.904;2023-07-16T11:32:34;24.70;99.90
11840;DHT22;5979;50.800;4.904;2023-07-16T11:35:01;24.70;99.90
11840;DHT22;5979;50.800;4.904;2023-07-16T11:37:29;24.90;99.90
11840;DHT22;5979;50.800;4.904;2023-07-16T11:40:00;25.00;99.90
11840;DHT22;5979;50.800;4.904;2023-07-16T11:42:34;25.10;99.90
11840;DHT22;5979;50.800;4.904;2023-07-16T11:45:22;25.20;99.90
11840;DHT22;5979;50.800;4.904;2023-07-16T11:47:52;25.40;99.90
11840;DHT22;5979;50.800;4.904;2023-07-16T11:50:18;25.60;99.90
11840;DHT22;5979;50.800;4.904;2023-07-16T11:52:56;25.80;99.90
11840;DHT22;5979;50.800;4.904;2023-07-16T11:55:22;26.00;99.90
11840;DHT22;5979;50.800;4.904;2023-07-16T11:57:48;26.10;99.90
11840;DHT22;5979;50.800;4.904;2023-07-16T12:00:14;26.20;99.90
11840;DHT22;5979;50.800;4.904;2023-07-16T12:02:39;26.20;99.90
11840;DHT22;5979;50.800;4.904;2023-07-16T12:05:05;26.20;99.90
11840;DHT22;5979;50.800;4.904;2023-07-16T12:07:35;26.20;99.90
11840;DHT22;5979;50.800;4.904;2023-07-16T12:10:04;26.20;99.90
11840;DHT22;5979;50.800;4.904;2023-07-16T12:12:31;26.00;99.90
11840;DHT22;5979;50.800;4.904;2023-07-16T12:14:56;26.00;99.90
11840;DHT22;5979;50.800;4.904;2023-07-16T12:17:22;26.10;99.90
11840;DHT22;5979;50.800;4.904;2023-07-16T12:19:48;26.00;99.90
11840;DHT22;5979;50.800;4.904;2023-07-16T12:22:17;26.20;99.90
11840;DHT22;5979;50.800;4.904;2023-07-16T12:24:43;26.10;99.90
11840;DHT22;5979;50.800;4.904;2023-07-16T12:27:08;26.20;99.90
11840;DHT22;5979;50.800;4.904;2023-07-16T12:29:34;26.30;99.90
11840;DHT22;5979;50.800;4.904;2023-07-16T12:32:00;26.40;99.90
11840;DHT22;5979;50.800;4.904;2023-07-16T12:34:26;26.50;99.90
11840;DHT22;5979;50.800;4.904;2023-07-16T12:36:51;26.60;99.90
11840;DHT22;5979;50.800;4.904;2023-07-16T12:39:17;26.60;99.90
11840;DHT22;5979;50.800;4.904;2023-07-16T12:41:44;26.60;99.90
11840;DHT22;5979;50.800;4.904;2023-07-16T12:44:09;26.70;99.90
11840;DHT22;5979;50.800;4.904;2023-07-16T12:46:35;26.90;99.90
11840;DHT22;5979;50.800;4.904;2023-07-16T12:49:01;26.90;99.90
11840;DHT22;5979;50.800;4.904;2023-07-16T12:51:27;26.80;99.90
11840;DHT22;5979;50.800;4.904;2023-07-16T12:53:52;26.80;99.90
11840;DHT22;5979;50.800;4.904;2023-07-16T12:56:18;26.80;99.90
11840;DHT22;5979;50.800;4.904;2023-07-16T12:58:44;26.70;99.90
11840;DHT22;5979;50.800;4.904;2023-07-16T13:01:10;26.80;99.90
11840;DHT22;5979;50.800;4.904;2023-07-16T13:03:35;26.70;99.90
11840;DHT22;5979;50.800;4.904;2023-07-16T13:06:01;26.80;99.90
11840;DHT22;5979;50.800;4.904;2023-07-16T13:08:29;27.00;99.90
11840;DHT22;5979;50.800;4.904;2023-07-16T13:10:55;27.00;99.90
11840;DHT22;5979;50.800;4.904;2023-07-16T13:13:21;26.90;99.90
11840;DHT22;5979;50.800;4.904;2023-07-16T13:15:47;26.90;99.90
11840;DHT22;5979;50.800;4.904;2023-07-16T13:18:12;27.00;99.90
11840;DHT22;5979;50.800;4.904;2023-07-16T13:20:38;27.00;99.90
11840;DHT22;5979;50.800;4.904;2023-07-16T13:23:04;27.10;99.90
11840;DHT22;5979;50.800;4.904;2023-07-16T13:25:30;27.10;99.90
11840;DHT22;5979;50.800;4.904;2023-07-16T13:27:56;27.00;99.90
11840;DHT22;5979;50.800;4.904;2023-07-16T13:30:22;26.80;99.90
11840;DHT22;5979;50.800;4.904;2023-07-16T13:32:48;26.60;99.90
11840;DHT22;5979;50.800;4.904;2023-07-16T13:35:17;26.50;99.90
11840;DHT22;5979;50.800;4.904;2023-07-16T13:37:43;26.40;99.90
11840;DHT22;5979;50.800;4.904;2023-07-16T13:40:09;26.30;99.90
11840;DHT22;5979;50.800;4.904;2023-07-16T13:42:35;26.30;99.90
11840;DHT22;5979;50.800;4.904;2023-07-16T13:45:00;26.30;99.90
11840;DHT22;5979;50.800;4.904;2023-07-16T13:47:26;26.30;99.90
11840;DHT22;5979;50.800;4.904;2023-07-16T13:49:52;26.40;99.90
11840;DHT22;5979;50.800;4.904;2023-07-16T13:52:17;26.40;99.90
11840;DHT22;5979;50.800;4.904;2023-07-16T13:54:43;26.40;99.90
11840;DHT22;5979;50.800;4.904;2023-07-16T13:57:09;26.40;99.90
11840;DHT22;5979;50.800;4.904;2023-07-16T13:59:35;26.40;99.90
11840;DHT22;5979;50.800;4.904;2023-07-16T14:02:02;26.50;99.90
11840;DHT22;5979;50.800;4.904;2023-07-16T14:04:28;26.50;99.90
11840;DHT22;5979;50.800;4.904;2023-07-16T14:06:54;26.40;99.90
11840;DHT22;5979;50.800;4.904;2023-07-16T14:09:20;26.40;99.90
11840;DHT22;5979;50.800;4.904;2023-07-16T14:11:46;26.40;99.90
11840;DHT22;5979;50.800;4.904;2023-07-16T14:14:38;26.40;99.90
11840;DHT22;5979;50.800;4.904;2023-07-16T14:17:05;26.40;99.90
11840;DHT22;5979;50.800;4.904;2023-07-16T14:19:30;26.30;99.90
11840;DHT22;5979;50.800;4.904;2023-07-16T14:21:56;26.30;99.90
11840;DHT22;5979;50.800;4.904;2023-07-16T14:24:22;26.40;99.90
11840;DHT22;5979;50.800;4.904;2023-07-16T14:26:47;26.40;99.90
11840;DHT22;5979;50.800;4.904;2023-07-16T14:29:14;26.40;99.90
11840;DHT22;5979;50.800;4.904;2023-07-16T14:31:40;26.40;99.90
11840;DHT22;5979;50.800;4.904;2023-07-16T14:34:06;26.40;99.90
11840;DHT22;5979;50.800;4.904;2023-07-16T14:36:32;26.30;99.90
11840;DHT22;5979;50.800;4.904;2023-07-16T14:38:57;26.30;99.90
11840;DHT22;5979;50.800;4.904;2023-07-16T14:41:23;26.20;99.90
11840;DHT22;5979;50.800;4.904;2023-07-16T14:43:50;26.20;99.90
11840;DHT22;5979;50.800;4.904;2023-07-16T14:46:16;26.30;99.90
11840;DHT22;5979;50.800;4.904;2023-07-16T14:48:43;26.30;99.90
11840;DHT22;5979;50.800;4.904;2023-07-16T14:51:10;26.30;99.90
11840;DHT22;5979;50.800;4.904;2023-07-16T14:53:37;26.40;99.90
11840;DHT22;5979;50.800;4.904;2023-07-16T14:56:03;26.50;99.90
11840;DHT22;5979;50.800;4.904;2023-07-16T14:58:32;26.60;99.90
11840;DHT22;5979;50.800;4.904;2023-07-16T15:01:00;26.60;99.90
11840;DHT22;5979;50.800;4.904;2023-07-16T15:03:27;26.60;99.90
11840;DHT22;5979;50.800;4.904;2023-07-16T15:05:59;26.60;99.90
11840;DHT22;5979;50.800;4.904;2023-07-16T15:08:24;26.60;99.90
11840;DHT22;5979;50.800;4.904;2023-07-16T15:10:52;26.70;99.90
11840;DHT22;5979;50.800;4.904;2023-07-16T15:13:20;26.60;99.90
11840;DHT22;5979;50.800;4.904;2023-07-16T15:15:49;26.60;99.90
11840;DHT22;5979;50.800;4.904;2023-07-16T15:18:15;26.50;99.90
11840;DHT22;5979;50.800;4.904;2023-07-16T15:20:41;26.40;99.90
11840;DHT22;5979;50.800;4.904;2023-07-16T15:23:06;26.40;99.90
11840;DHT22;5979;50.800;4.904;2023-07-16T15:25:32;26.40;99.90
11840;DHT22;5979;50.800;4.904;2023-07-16T15:27:58;26.40;99.90
11840;DHT22;5979;50.800;4.904;2023-07-16T15:30:25;26.30;99.90
11840;DHT22;5979;50.800;4.904;2023-07-16T15:32:51;26.20;99.90
11840;DHT22;5979;50.800;4.904;2023-07-16T15:35:17;26.20;99.90
11840;DHT22;5979;50.800;4.904;2023-07-16T15:37:43;26.20;99.90
11840;DHT22;5979;50.800;4.904;2023-07-16T15:40:13;26.20;99.90
11840;DHT22;5979;50.800;4.904;2023-07-16T15:42:43;26.10;99.90
11840;DHT22;5979;50.800;4.904;2023-07-16T15:45:13;26.10;99.90
11840;DHT22;5979;50.800;4.904;2023-07-16T15:47:39;26.00;99.90
11840;DHT22;5979;50.800;4.904;2023-07-16T15:50:05;25.90;99.90
11840;DHT22;5979;50.800;4.904;2023-07-16T15:52:31;25.60;99.90
11840;DHT22;5979;50.800;4.904;2023-07-16T15:54:56;25.60;99.90